createdAt,value
2018-07-05T00:01:52.160Z,73.40
2018-07-05T00:07:05.483Z,74.50
2018-07-05T00:09:45.159Z,75.20
2018-07-05T00:12:24.882Z,74.60
2018-07-05T00:17:38.429Z,76.00
2018-07-05T00:20:18.056Z,75.30
2018-07-05T00:22:57.758Z,74.70
2018-07-05T00:25:37.580Z,74.60
2018-07-05T00:28:17.257Z,74.60
2018-07-05T00:30:56.880Z,75.40
2018-07-05T00:33:36.680Z,74.20
2018-07-05T00:38:50.074Z,73.60
2018-07-05T00:41:29.749Z,74.00
2018-07-05T00:44:09.428Z,74.50
2018-07-05T00:46:49.267Z,71.60
2018-07-05T00:49:28.911Z,70.50
2018-07-05T00:52:08.483Z,71.50
2018-07-05T00:54:48.329Z,72.60
2018-07-05T00:57:27.893Z,74.70
2018-07-05T01:00:07.630Z,72.20
2018-07-05T01:02:47.322Z,73.30
2018-07-05T01:05:26.945Z,72.70
2018-07-05T01:08:06.666Z,71.60
2018-07-05T01:10:46.462Z,71.20
2018-07-05T01:13:26.123Z,71.60
2018-07-05T01:16:05.834Z,73.70
2018-07-05T01:18:45.325Z,73.20
2018-07-05T01:26:32.429Z,76.90
2018-07-05T01:29:12.162Z,76.80
2018-07-05T01:31:51.917Z,77.40
2018-07-05T01:34:31.740Z,79.70
2018-07-05T01:37:11.433Z,81.60
2018-07-05T01:39:50.981Z,80.60
2018-07-05T01:42:30.685Z,79.50
2018-07-05T01:45:10.391Z,73.90
2018-07-05T01:47:50.158Z,69.00
2018-07-05T01:50:29.923Z,70.00
2018-07-05T01:53:09.631Z,64.90
2018-07-05T01:55:49.401Z,67.50
2018-07-05T01:58:28.966Z,66.50
2018-07-05T02:01:08.633Z,64.70
2018-07-05T02:03:48.290Z,66.50
2018-07-05T02:06:28.056Z,69.00
2018-07-05T02:09:07.625Z,74.40
2018-07-05T02:11:47.354Z,73.50
2018-07-05T02:14:26.893Z,76.30
2018-07-05T02:17:06.661Z,79.70
2018-07-05T02:19:46.328Z,80.80
2018-07-05T02:22:25.870Z,80.20
2018-07-05T02:25:05.413Z,80.70
2018-07-05T02:27:44.983Z,81.00
2018-07-05T02:30:24.699Z,80.60
2018-07-05T02:33:04.553Z,79.80
2018-07-05T02:35:44.349Z,80.20
2018-07-05T02:38:24.842Z,82.00
2018-07-05T02:41:05.381Z,82.40
2018-07-05T02:46:18.568Z,85.50
2018-07-05T02:48:58.346Z,84.70
2018-07-05T02:51:38.111Z,85.20
2018-07-05T02:54:18.084Z,83.40
2018-07-05T02:56:57.982Z,86.30
2018-07-05T02:59:37.882Z,87.70
2018-07-05T03:02:18.022Z,89.60
2018-07-05T03:04:57.742Z,90.20
2018-07-05T03:07:37.400Z,90.90
2018-07-05T03:10:17.049Z,91.90
2018-07-05T03:12:56.788Z,92.10
2018-07-05T03:15:36.314Z,92.70
2018-07-05T03:18:15.975Z,92.90
2018-07-05T03:20:55.690Z,93.90
2018-07-05T03:26:09.307Z,94.40
2018-07-05T03:28:48.966Z,94.30
2018-07-05T03:31:28.463Z,94.70
2018-07-05T03:34:08.090Z,95.00
2018-07-05T03:36:47.798Z,95.30
2018-07-05T03:39:27.423Z,95.60
2018-07-05T03:42:08.084Z,95.90
2018-07-05T03:44:47.785Z,96.00
2018-07-05T03:47:27.421Z,95.70
2018-07-05T03:50:07.183Z,95.40
2018-07-05T03:52:46.903Z,95.70
2018-07-05T03:55:26.676Z,95.90
2018-07-05T03:58:06.315Z,95.90
2018-07-05T04:00:46.027Z,96.10
2018-07-05T04:03:25.720Z,96.30
2018-07-05T04:08:38.977Z,97.30
2018-07-05T04:16:25.975Z,97.40
2018-07-05T04:19:05.568Z,96.90
2018-07-05T04:21:45.193Z,97.10
2018-07-05T04:26:58.997Z,96.10
2018-07-05T04:29:38.736Z,95.50
2018-07-05T04:32:18.357Z,96.10
2018-07-05T04:34:57.950Z,96.40
2018-07-05T04:37:37.809Z,96.20
2018-07-05T04:47:58.852Z,96.50
2018-07-05T04:50:38.399Z,96.70
2018-07-05T04:53:18.059Z,96.80
2018-07-05T04:55:57.580Z,97.00
2018-07-05T05:01:11.074Z,96.80
2018-07-05T05:03:50.726Z,97.10
2018-07-05T05:06:30.292Z,96.60
2018-07-05T05:09:10.048Z,96.50
2018-07-05T05:11:49.848Z,96.60
2018-07-05T05:14:29.544Z,96.70
2018-07-05T05:17:09.176Z,97.20
2018-07-05T05:22:22.683Z,97.40
2018-07-05T05:25:02.498Z,97.30
2018-07-05T05:27:42.108Z,96.50
2018-07-05T05:30:21.656Z,96.20
2018-07-05T05:33:01.313Z,96.80
2018-07-05T05:35:40.898Z,95.70
2018-07-05T05:38:20.614Z,95.70
2018-07-05T05:41:00.176Z,95.00
2018-07-05T05:43:39.888Z,94.20
2018-07-05T05:46:19.637Z,94.00
2018-07-05T05:48:59.373Z,94.80
2018-07-05T05:51:38.934Z,95.10
2018-07-05T05:54:18.543Z,95.00
2018-07-05T05:56:58.293Z,95.50
2018-07-05T05:59:37.813Z,95.40
2018-07-05T06:02:17.507Z,94.70
2018-07-05T06:04:57.280Z,94.40
2018-07-05T06:10:10.704Z,94.50
2018-07-05T06:12:50.389Z,94.70
2018-07-05T06:15:30.080Z,94.80
2018-07-05T06:18:09.776Z,93.10
2018-07-05T06:20:49.417Z,93.20
2018-07-05T06:23:29.073Z,92.90
2018-07-05T06:26:08.782Z,93.10
2018-07-05T06:28:48.431Z,93.50
2018-07-05T06:31:28.092Z,93.20
2018-07-05T06:34:07.670Z,93.20
2018-07-05T06:36:47.304Z,93.90
2018-07-05T06:39:27.169Z,93.40
2018-07-05T06:42:06.834Z,94.30
2018-07-05T06:44:46.630Z,93.70
2018-07-05T06:47:26.249Z,93.20
2018-07-05T06:50:06.025Z,92.40
2018-07-05T06:52:45.785Z,92.50
2018-07-05T06:55:25.436Z,92.80
2018-07-05T06:58:05.108Z,92.70
2018-07-05T07:00:44.758Z,92.60
2018-07-05T07:03:24.370Z,92.50
2018-07-05T07:06:04.002Z,92.40
2018-07-05T07:08:43.695Z,92.30
2018-07-05T07:11:23.360Z,92.60
2018-07-05T07:14:03.009Z,92.70
2018-07-05T07:16:42.585Z,93.10
2018-07-05T07:19:22.185Z,93.30
2018-07-05T07:24:35.344Z,94.40
2018-07-05T07:27:15.145Z,95.00
2018-07-05T07:29:54.806Z,95.10
2018-07-05T07:32:34.371Z,95.40
2018-07-05T07:35:13.899Z,95.10
2018-07-05T07:37:53.512Z,95.30
2018-07-05T07:40:33.222Z,95.50
2018-07-05T07:43:00.574Z,95.90
2018-07-05T07:45:27.975Z,95.50
2018-07-05T07:47:55.291Z,95.50
2018-07-05T07:50:22.616Z,95.80
2018-07-05T07:52:49.995Z,95.60
2018-07-05T07:55:17.349Z,95.40
2018-07-05T07:57:44.686Z,95.20
2018-07-05T08:00:12.038Z,95.00
2018-07-05T08:05:06.972Z,94.90
2018-07-05T08:10:01.871Z,95.50
2018-07-05T08:12:29.219Z,94.90
2018-07-05T08:14:56.660Z,95.10
2018-07-05T08:17:23.974Z,95.20
2018-07-05T08:22:18.938Z,95.20
2018-07-05T08:24:46.278Z,94.30
2018-07-05T08:27:13.650Z,94.70
2018-07-05T08:29:41.035Z,94.90
2018-07-05T08:32:08.586Z,95.00
2018-07-05T08:34:35.926Z,94.00
2018-07-05T08:37:03.304Z,94.80
2018-07-05T08:39:30.650Z,95.10
2018-07-05T08:41:57.978Z,95.40
2018-07-05T08:46:52.972Z,95.80
2018-07-05T08:49:20.327Z,95.90
2018-07-05T08:51:47.693Z,95.60
2018-07-05T08:54:15.131Z,96.00
2018-07-05T08:56:42.491Z,96.30
2018-07-05T08:59:09.849Z,96.10
2018-07-05T09:01:37.209Z,95.50
2018-07-05T09:04:04.557Z,94.60
2018-07-05T09:06:31.882Z,95.50
2018-07-05T09:11:26.808Z,94.90
2018-07-05T09:13:54.126Z,94.30
2018-07-05T09:16:21.511Z,95.40
2018-07-05T09:18:48.848Z,94.70
2018-07-05T09:21:16.239Z,94.50
2018-07-05T09:23:43.663Z,93.70
2018-07-05T09:26:10.993Z,93.90
2018-07-05T09:28:38.354Z,94.50
2018-07-05T09:31:05.735Z,93.50
2018-07-05T09:33:33.071Z,93.60
2018-07-05T09:36:00.511Z,93.30
2018-07-05T09:40:55.515Z,92.90
2018-07-05T09:43:22.893Z,93.50
2018-07-05T09:45:50.279Z,93.20
2018-07-05T09:48:17.619Z,93.80
2018-07-05T09:53:12.612Z,94.50
2018-07-05T09:55:39.951Z,94.20
2018-07-05T09:58:07.361Z,95.00
2018-07-05T10:00:39.948Z,95.80
2018-07-05T10:05:34.863Z,97.10
2018-07-05T10:10:29.834Z,98.00
2018-07-05T10:12:57.202Z,98.70
2018-07-05T10:15:24.501Z,97.50
2018-07-05T10:17:51.868Z,98.20
2018-07-05T10:20:19.190Z,98.30
2018-07-05T10:22:46.541Z,98.20
2018-07-05T10:25:13.920Z,98.30
2018-07-05T10:27:41.284Z,97.40
2018-07-05T10:30:21.221Z,97.10
2018-07-05T10:33:01.072Z,96.00
2018-07-05T10:35:28.437Z,97.10
2018-07-05T10:37:59.815Z,96.90
2018-07-05T10:40:41.015Z,96.50
2018-07-05T10:43:20.660Z,95.50
2018-07-05T10:46:00.679Z,94.50
2018-07-05T10:51:14.120Z,94.30
2018-07-05T10:53:53.824Z,94.00
2018-07-05T10:56:33.579Z,91.30
2018-07-05T10:59:13.389Z,93.20
2018-07-05T11:01:53.207Z,91.30
2018-07-05T11:04:33.004Z,90.70
2018-07-05T11:07:12.846Z,84.40
2018-07-05T11:09:52.465Z,86.90
2018-07-05T11:12:32.080Z,86.40
2018-07-05T11:15:11.810Z,82.90
2018-07-05T11:20:25.207Z,82.10
2018-07-05T11:23:04.898Z,79.30
2018-07-05T11:25:44.700Z,80.50
2018-07-05T11:28:24.650Z,78.10
2018-07-05T11:31:04.414Z,77.90
2018-07-05T11:33:43.941Z,80.90
2018-07-05T11:36:23.738Z,80.70
2018-07-05T11:39:04.884Z,80.90
2018-07-05T11:44:18.290Z,76.70
2018-07-05T11:46:58.050Z,77.10
2018-07-05T11:49:37.764Z,79.70
2018-07-05T11:52:17.583Z,79.40
2018-07-05T11:54:57.317Z,77.10
2018-07-05T11:57:37.078Z,79.30
2018-07-05T12:00:16.714Z,80.10
2018-07-05T12:02:56.551Z,85.50
2018-07-05T12:05:36.446Z,85.80
2018-07-05T12:08:16.222Z,86.20
2018-07-05T12:10:55.839Z,86.30
2018-07-05T12:13:35.417Z,87.90
2018-07-05T12:16:15.121Z,88.00
2018-07-05T12:18:54.772Z,88.10
2018-07-05T12:24:08.221Z,88.00
2018-07-05T12:26:47.915Z,89.20
2018-07-05T12:29:27.748Z,91.40
2018-07-05T12:34:41.146Z,92.70
2018-07-05T12:37:20.810Z,92.90
2018-07-05T12:40:00.340Z,92.30
2018-07-05T12:42:39.879Z,93.20
2018-07-05T12:45:19.446Z,94.20
2018-07-05T12:47:59.107Z,94.00
2018-07-05T12:50:38.622Z,94.80
2018-07-05T12:53:18.321Z,96.10
2018-07-05T12:55:58.001Z,95.70
2018-07-05T12:58:37.735Z,96.10
2018-07-05T13:01:17.580Z,95.00
2018-07-05T13:03:57.372Z,95.70
2018-07-05T13:06:37.261Z,96.20
2018-07-05T13:09:16.889Z,96.10
2018-07-05T13:14:30.196Z,98.10
2018-07-05T13:17:09.817Z,98.00
2018-07-05T13:19:49.417Z,97.60
2018-07-05T13:22:29.054Z,98.50
2018-07-05T13:25:08.724Z,96.20
2018-07-05T13:27:48.275Z,98.80
2018-07-05T13:30:27.877Z,98.20
2018-07-05T13:35:41.463Z,98.50
2018-07-05T13:38:21.042Z,99.40
2018-07-05T13:41:00.844Z,99.90
2018-07-05T13:43:40.472Z,99.90
2018-07-05T13:46:20.013Z,99.90
2018-07-05T13:48:59.840Z,99.90
2018-07-05T13:51:39.497Z,99.90
2018-07-05T13:54:19.124Z,97.90
2018-07-05T13:56:58.751Z,98.40
2018-07-05T14:02:12.153Z,97.40
2018-07-05T14:04:51.773Z,96.60
2018-07-05T14:07:31.451Z,98.20
2018-07-05T14:10:11.163Z,98.50
2018-07-05T14:12:50.985Z,99.00
2018-07-05T14:15:30.801Z,99.60
2018-07-05T14:20:44.098Z,97.70
2018-07-05T14:23:23.783Z,95.60
2018-07-05T14:28:37.214Z,98.80
2018-07-05T14:31:17.070Z,99.40
2018-07-05T14:33:56.820Z,99.90
2018-07-05T14:36:36.394Z,99.60
2018-07-05T14:39:16.016Z,99.90
2018-07-05T14:41:55.648Z,99.90
2018-07-05T14:47:08.930Z,99.90
2018-07-05T14:49:48.592Z,99.90
2018-07-05T14:52:28.137Z,99.90
2018-07-05T14:55:07.838Z,99.90
2018-07-05T14:57:47.573Z,99.90
2018-07-05T15:00:27.249Z,99.90
2018-07-05T15:03:06.940Z,99.20
2018-07-05T15:05:46.455Z,98.50
2018-07-05T15:10:59.666Z,98.60
2018-07-05T15:13:39.393Z,98.30
2018-07-05T15:16:19.184Z,98.00
2018-07-05T15:18:59.251Z,98.20
2018-07-05T15:21:38.881Z,98.00
2018-07-05T15:24:18.653Z,97.80
2018-07-05T15:26:58.268Z,98.40
2018-07-05T15:29:38.030Z,96.70
2018-07-05T15:32:17.649Z,98.00
2018-07-05T15:34:57.293Z,98.50
2018-07-05T15:37:37.071Z,98.80
2018-07-05T15:40:16.632Z,99.20
2018-07-05T15:42:56.397Z,99.70
2018-07-05T15:45:36.062Z,99.00
2018-07-05T15:48:15.747Z,98.60
2018-07-05T15:50:55.465Z,98.30
2018-07-05T15:53:35.239Z,97.50
2018-07-05T15:56:15.034Z,97.10
2018-07-05T15:58:54.791Z,96.90
2018-07-05T16:01:34.508Z,97.10
2018-07-05T16:04:14.158Z,95.30
2018-07-05T16:06:53.776Z,93.90
2018-07-05T16:12:07.124Z,96.40
2018-07-05T16:19:54.244Z,88.80
2018-07-05T16:22:33.924Z,90.40
2018-07-05T16:25:13.720Z,89.50
2018-07-05T16:27:53.356Z,87.90
2018-07-05T16:30:33.066Z,88.10
2018-07-05T16:33:12.740Z,87.80
2018-07-05T16:35:52.546Z,91.00
2018-07-05T16:38:32.400Z,90.90
2018-07-05T16:41:12.081Z,91.10
2018-07-05T16:43:51.739Z,91.60
2018-07-05T16:46:31.405Z,91.30
2018-07-05T16:49:11.046Z,90.40
2018-07-05T16:51:50.641Z,92.40
2018-07-05T16:54:30.323Z,92.10
2018-07-05T16:57:10.087Z,93.10
2018-07-05T16:59:49.658Z,93.00
2018-07-05T17:02:29.481Z,94.20
2018-07-05T17:05:09.208Z,95.00
2018-07-05T17:07:48.890Z,94.60
2018-07-05T17:10:28.562Z,94.90
2018-07-05T17:15:41.956Z,95.00
2018-07-05T17:18:21.619Z,95.40
2018-07-05T17:21:01.467Z,95.10
2018-07-05T17:23:41.216Z,92.80
2018-07-05T17:26:21.090Z,93.60
2018-07-05T17:29:00.782Z,94.30
2018-07-05T17:31:40.573Z,94.30
2018-07-05T17:39:27.686Z,96.80
2018-07-05T17:42:07.297Z,96.80
2018-07-05T17:44:46.876Z,96.40
2018-07-05T17:47:26.445Z,96.30
2018-07-05T17:50:06.132Z,96.30
2018-07-05T17:52:45.828Z,97.60
2018-07-05T17:55:25.565Z,98.00
2018-07-05T17:58:05.291Z,98.20
2018-07-05T18:03:18.907Z,99.30
2018-07-05T18:05:58.713Z,99.50
2018-07-05T18:08:38.451Z,99.40
2018-07-05T18:11:18.064Z,99.40
2018-07-05T18:16:31.384Z,99.90
2018-07-05T18:19:11.134Z,99.90
2018-07-05T18:21:50.718Z,99.70
2018-07-05T18:24:30.424Z,98.80
2018-07-05T18:27:10.124Z,99.50
2018-07-05T18:29:49.973Z,99.90
2018-07-05T18:32:29.736Z,99.90
2018-07-05T18:35:09.384Z,99.90
2018-07-05T18:37:49.142Z,99.90
2018-07-05T18:40:28.854Z,99.90
2018-07-05T18:43:08.628Z,99.90
2018-07-05T18:48:22.216Z,99.90
2018-07-05T18:51:01.954Z,99.90
2018-07-05T18:53:41.732Z,99.90
2018-07-05T18:56:21.560Z,99.90
2018-07-05T18:59:01.367Z,99.90
2018-07-05T19:01:41.150Z,99.90
2018-07-05T19:04:20.904Z,99.90
2018-07-05T19:07:00.655Z,99.90
2018-07-05T19:09:40.523Z,99.90
2018-07-05T19:12:20.240Z,99.90
2018-07-05T19:14:59.979Z,99.90
2018-07-05T19:17:39.769Z,99.90
2018-07-05T19:22:53.111Z,99.90
2018-07-05T19:28:06.455Z,99.90
2018-07-05T19:33:20.022Z,99.90
2018-07-05T19:35:59.435Z,99.90
2018-07-05T19:41:12.828Z,99.90
2018-07-05T19:43:52.402Z,99.90
2018-07-05T19:46:32.038Z,99.90
2018-07-05T19:49:11.616Z,99.90
2018-07-05T19:51:51.411Z,99.90
2018-07-05T19:54:31.024Z,99.90
2018-07-05T19:57:10.742Z,99.90
2018-07-05T19:59:50.634Z,99.90
2018-07-05T20:02:30.334Z,99.90
2018-07-05T20:05:09.905Z,99.90
2018-07-05T20:07:49.548Z,99.90
2018-07-05T20:10:29.251Z,99.90
2018-07-05T20:13:09.013Z,99.90
2018-07-05T20:15:48.655Z,99.90
2018-07-05T20:18:28.307Z,99.90
2018-07-05T20:21:07.848Z,99.90
2018-07-05T20:23:47.529Z,99.90
2018-07-05T20:29:00.790Z,99.90
2018-07-05T20:31:40.471Z,99.90
2018-07-05T20:34:20.170Z,99.90
2018-07-05T20:36:59.828Z,99.90
2018-07-05T20:39:39.467Z,99.90
2018-07-05T20:42:19.227Z,99.90
2018-07-05T20:44:58.898Z,99.90
2018-07-05T20:47:38.675Z,99.90
2018-07-05T20:52:52.031Z,99.90
2018-07-05T20:55:31.911Z,99.90
2018-07-05T20:58:11.601Z,99.90
2018-07-05T21:00:51.229Z,99.90
2018-07-05T21:06:04.623Z,99.90
2018-07-05T21:08:44.434Z,99.90
2018-07-05T21:11:24.139Z,99.90
2018-07-05T21:14:03.747Z,99.90
2018-07-05T21:16:43.493Z,99.90
2018-07-05T21:19:23.171Z,99.90
2018-07-05T21:22:02.749Z,99.90
2018-07-05T21:24:42.539Z,99.90
2018-07-05T21:27:22.245Z,99.90
2018-07-05T21:30:02.025Z,99.90
2018-07-05T21:32:41.549Z,99.90
2018-07-05T21:35:21.348Z,99.90
2018-07-05T21:38:00.972Z,99.90
2018-07-05T21:43:14.124Z,99.90
2018-07-05T21:45:53.872Z,99.90
2018-07-05T21:48:33.506Z,99.90
2018-07-05T21:51:13.117Z,99.90
2018-07-05T21:53:52.744Z,99.90
2018-07-05T21:56:32.383Z,99.90
2018-07-05T21:59:11.880Z,99.90
2018-07-05T22:01:51.589Z,99.90
2018-07-05T22:04:31.242Z,99.90
2018-07-05T22:07:10.983Z,99.90
2018-07-05T22:09:50.636Z,99.90
2018-07-05T22:12:30.457Z,99.90
2018-07-05T22:17:49.337Z,99.90
2018-07-05T22:23:13.285Z,99.90
2018-07-05T22:25:58.459Z,99.90
2018-07-05T22:28:43.512Z,99.90
2018-07-05T22:31:28.546Z,99.90
2018-07-05T22:34:08.202Z,99.90
2018-07-05T22:36:47.805Z,99.90
2018-07-05T22:39:27.444Z,99.90
2018-07-05T22:42:07.284Z,99.90
2018-07-05T22:47:20.560Z,99.90
2018-07-05T22:50:00.217Z,99.90
2018-07-05T22:52:40.001Z,99.90
2018-07-05T22:57:53.265Z,99.90
2018-07-05T23:00:32.996Z,99.90
2018-07-05T23:03:12.791Z,99.90
2018-07-05T23:05:52.555Z,99.90
2018-07-05T23:08:32.514Z,99.90
2018-07-05T23:13:46.119Z,99.90
2018-07-05T23:16:25.672Z,99.90
2018-07-05T23:19:05.404Z,99.90
2018-07-05T23:21:45.126Z,99.90
2018-07-05T23:24:24.922Z,99.90
2018-07-05T23:27:04.697Z,99.90
2018-07-05T23:32:17.996Z,99.90
2018-07-05T23:34:57.668Z,99.90
2018-07-05T23:40:10.916Z,99.90
2018-07-05T23:42:50.434Z,99.90
2018-07-05T23:45:30.103Z,99.90
2018-07-05T23:48:09.828Z,99.90
2018-07-05T23:50:49.486Z,99.90
2018-07-05T23:53:29.256Z,99.90
2018-07-05T23:56:08.849Z,99.90
